YLB weather

Lac La Biche Airport
Lac La Biche, Alberta, Canada

Public forecast

Using degrees Celsius for public forecast. Weather courtesy of forecast.io.

METAR (pilot weather report)

Closest report is CFB Cold Lake, 64.8 nm (120.0 km) ESE. Retrieved 2019/05/26 04:00 UTC (51 minutes ago):

CYOD 260400Z 29005KT 15SM SCT080 BKN250 12/03 A3005 RMK ACC4CI2 AC ASOCTD VIRGA S SLP187

TAF (pilot weather forecast)

Closest forecast is CFB Cold Lake, 64.8 nm (120.0 km) ESE. Retrieved 2019/05/26 03:50 UTC (1 hour ago):

TAF CYOD 260241Z 2603/2624 VRB03KT P6SM SCT050 BKN100 FM260600 VRB03KT P6SM SKC PROB30 2610/2614 3/4SM BR RMK NXT FCST BY 260600Z